createdAt,value
2018-06-06T00:01:53.735Z,72.51
2018-06-06T00:04:22.347Z,72.66
2018-06-06T00:06:50.875Z,73.02
2018-06-06T00:09:19.521Z,72.37
2018-06-06T00:11:48.063Z,72.85
2018-06-06T00:14:16.722Z,72.46
2018-06-06T00:16:45.320Z,73.08
2018-06-06T00:19:14.989Z,74.00
2018-06-06T00:21:43.536Z,73.58
2018-06-06T00:24:12.208Z,73.68
2018-06-06T00:26:40.770Z,73.91
2018-06-06T00:29:09.506Z,73.38
2018-06-06T00:31:39.044Z,75.11
2018-06-06T00:34:07.695Z,74.56
2018-06-06T00:36:36.283Z,74.32
2018-06-06T00:39:08.509Z,74.35
2018-06-06T00:41:37.813Z,74.34
2018-06-06T00:44:06.429Z,74.24
2018-06-06T00:46:35.080Z,73.52
2018-06-06T00:49:03.665Z,73.71
2018-06-06T00:51:32.475Z,73.76
2018-06-06T00:54:01.062Z,74.09
2018-06-06T00:56:29.713Z,74.41
2018-06-06T00:58:58.287Z,74.67
2018-06-06T01:01:26.888Z,74.55
2018-06-06T01:03:55.516Z,74.63
2018-06-06T01:06:24.111Z,74.43
2018-06-06T01:08:52.702Z,75.14
2018-06-06T01:11:21.287Z,74.73
2018-06-06T01:13:49.884Z,74.96
2018-06-06T01:16:18.456Z,75.25
2018-06-06T01:18:47.003Z,76.48
2018-06-06T01:21:15.581Z,76.99
2018-06-06T01:23:44.151Z,76.20
2018-06-06T01:26:12.884Z,76.70
2018-06-06T01:31:08.960Z,76.00
2018-06-06T01:33:37.815Z,75.39
2018-06-06T01:36:06.504Z,75.71
2018-06-06T01:38:35.164Z,75.07
2018-06-06T01:41:03.809Z,75.70
2018-06-06T01:43:32.711Z,75.68
2018-06-06T01:46:01.241Z,75.86
2018-06-06T01:48:29.872Z,75.98
2018-06-06T01:50:58.428Z,76.07
2018-06-06T01:53:27.296Z,76.15
2018-06-06T01:55:55.837Z,76.10
2018-06-06T01:58:25.183Z,76.91
2018-06-06T02:00:53.747Z,77.14
2018-06-06T02:03:22.465Z,77.33
2018-06-06T02:05:51.023Z,76.41
2018-06-06T02:34:00.573Z,78.26
2018-06-06T02:36:29.191Z,77.62
2018-06-06T02:38:58.468Z,76.73
2018-06-06T02:41:27.120Z,77.14
2018-06-06T02:43:55.800Z,77.56
2018-06-06T02:46:26.648Z,77.33
2018-06-06T02:48:55.253Z,77.29
2018-06-06T02:51:23.820Z,77.96
2018-06-06T02:53:52.459Z,78.02
2018-06-06T02:56:21.051Z,78.72
2018-06-06T02:58:49.605Z,79.16
2018-06-06T03:01:18.264Z,78.94
2018-06-06T03:03:46.824Z,79.28
2018-06-06T03:06:15.544Z,78.21
2018-06-06T03:08:44.180Z,78.07
2018-06-06T03:11:12.752Z,78.60
2018-06-06T03:13:41.395Z,78.07
2018-06-06T03:16:09.965Z,78.35
2018-06-06T03:18:38.658Z,80.19
2018-06-06T03:21:10.872Z,80.10
2018-06-06T03:23:39.518Z,80.28
2018-06-06T03:26:08.295Z,79.68
2018-06-06T03:28:36.940Z,79.73
2018-06-06T03:31:06.427Z,80.13
2018-06-06T03:33:35.249Z,80.26
2018-06-06T03:36:03.963Z,79.93
2018-06-06T03:38:32.648Z,78.71
2018-06-06T03:41:01.221Z,77.95
2018-06-06T03:43:29.915Z,77.87
2018-06-06T03:45:58.480Z,77.94
2018-06-06T03:48:27.148Z,77.08
2018-06-06T03:50:55.724Z,77.52
2018-06-06T03:53:24.355Z,78.50
2018-06-06T03:55:53.469Z,78.78
2018-06-06T03:58:22.231Z,78.63
2018-06-06T04:00:50.984Z,79.46
2018-06-06T04:03:19.904Z,80.21
2018-06-06T04:05:48.622Z,80.50
2018-06-06T04:08:17.287Z,79.38
2018-06-06T04:10:45.973Z,80.21
2018-06-06T04:13:14.504Z,79.67
2018-06-06T04:15:43.272Z,79.18
2018-06-06T04:18:11.916Z,79.23
2018-06-06T04:20:40.549Z,78.50
2018-06-06T04:23:09.095Z,79.20
2018-06-06T04:25:37.772Z,78.53
2018-06-06T04:28:06.554Z,78.04
2018-06-06T04:30:35.252Z,78.69
2018-06-06T04:33:03.819Z,77.63
2018-06-06T04:35:32.420Z,78.37
2018-06-06T04:38:01.025Z,78.63
2018-06-06T04:40:29.716Z,78.16
2018-06-06T04:42:58.288Z,78.26
2018-06-06T04:45:27.764Z,78.18
2018-06-06T04:47:56.408Z,78.64
2018-06-06T04:50:25.063Z,78.81
2018-06-06T04:52:53.681Z,78.44
2018-06-06T04:55:22.245Z,77.91
2018-06-06T04:57:50.964Z,78.74
2018-06-06T05:00:19.596Z,78.53
2018-06-06T05:02:48.170Z,79.31
2018-06-06T05:05:16.913Z,77.93
2018-06-06T05:07:45.534Z,78.04
2018-06-06T05:10:14.089Z,78.45
2018-06-06T05:12:42.755Z,78.69
2018-06-06T05:15:11.455Z,77.78
2018-06-06T05:17:40.056Z,77.33
2018-06-06T05:20:08.610Z,76.88
2018-06-06T05:22:37.195Z,77.61
2018-06-06T05:25:06.009Z,76.47
2018-06-06T05:27:34.556Z,77.15
2018-06-06T05:30:03.410Z,76.87
2018-06-06T05:32:32.038Z,77.56
2018-06-06T05:35:00.856Z,77.37
2018-06-06T05:37:29.492Z,77.16
2018-06-06T05:39:58.072Z,77.04
2018-06-06T05:42:26.619Z,77.09
2018-06-06T05:44:55.268Z,77.17
2018-06-06T05:47:23.816Z,77.21
2018-06-06T05:49:52.420Z,76.74
2018-06-06T05:52:21.938Z,76.30
2018-06-06T05:54:50.892Z,75.75
2018-06-06T05:57:19.498Z,75.47
2018-06-06T05:59:48.323Z,76.46
2018-06-06T06:02:16.858Z,75.19
2018-06-06T06:04:45.725Z,75.95
2018-06-06T06:07:14.296Z,74.89
2018-06-06T06:09:42.927Z,75.44
2018-06-06T06:12:11.588Z,74.40
2018-06-06T06:14:40.244Z,74.15
2018-06-06T06:17:08.993Z,74.10
2018-06-06T06:19:38.128Z,72.63
2018-06-06T06:22:06.792Z,72.31
2018-06-06T06:24:35.495Z,73.01
2018-06-06T06:27:04.200Z,72.36
2018-06-06T06:29:32.744Z,71.68
2018-06-06T06:32:01.353Z,70.71
2018-06-06T06:34:29.944Z,69.82
2018-06-06T06:36:58.734Z,70.83
2018-06-06T06:39:27.364Z,71.04
2018-06-06T06:41:55.979Z,71.42
2018-06-06T06:44:24.515Z,70.83
2018-06-06T06:46:53.168Z,70.63
2018-06-06T06:49:21.757Z,68.78
2018-06-06T06:51:50.351Z,68.38
2018-06-06T06:54:18.953Z,67.77
2018-06-06T06:56:47.597Z,67.07
2018-06-06T06:59:16.209Z,67.61
2018-06-06T07:01:44.929Z,67.03
2018-06-06T07:04:13.549Z,67.96
2018-06-06T07:06:42.142Z,67.51
2018-06-06T07:09:10.849Z,66.98
2018-06-06T07:11:39.496Z,65.77
2018-06-06T07:14:08.685Z,66.75
2018-06-06T07:16:37.308Z,66.58
2018-06-06T07:19:05.971Z,65.50
2018-06-06T07:21:35.122Z,65.44
2018-06-06T07:24:05.491Z,65.00
2018-06-06T07:26:34.049Z,63.22
2018-06-06T07:29:02.647Z,62.55
2018-06-06T07:31:31.269Z,62.33
2018-06-06T07:33:59.849Z,63.14
2018-06-06T07:36:28.434Z,62.29
2018-06-06T07:38:57.262Z,61.57
2018-06-06T07:41:25.829Z,60.77
2018-06-06T07:43:54.441Z,60.73
2018-06-06T07:46:23.008Z,61.93
2018-06-06T07:48:51.953Z,61.59
2018-06-06T07:51:20.495Z,60.69
2018-06-06T07:53:49.296Z,62.98
2018-06-06T07:56:17.952Z,61.55
2018-06-06T07:58:46.492Z,61.38
2018-06-06T08:01:15.138Z,61.46
2018-06-06T08:03:43.816Z,59.47
2018-06-06T08:06:12.585Z,60.00
2018-06-06T08:08:41.388Z,59.83
2018-06-06T08:11:10.037Z,60.77
2018-06-06T08:13:38.641Z,61.10
2018-06-06T08:16:07.259Z,60.05
2018-06-06T08:18:35.859Z,60.09
2018-06-06T08:21:04.578Z,59.84
2018-06-06T08:23:33.264Z,59.76
2018-06-06T08:26:01.900Z,60.58
2018-06-06T08:28:30.488Z,59.95
2018-06-06T08:30:59.117Z,59.04
2018-06-06T08:33:27.760Z,57.80
2018-06-06T08:35:56.496Z,58.20
2018-06-06T08:38:25.148Z,57.90
2018-06-06T08:40:53.733Z,58.48
2018-06-06T08:43:22.324Z,57.76
2018-06-06T08:45:51.191Z,56.61
2018-06-06T08:48:19.824Z,58.11
2018-06-06T08:50:48.451Z,57.43
2018-06-06T08:53:17.148Z,57.59
2018-06-06T08:55:45.688Z,56.77
2018-06-06T08:58:14.298Z,56.51
2018-06-06T09:00:42.817Z,56.28
2018-06-06T09:03:11.520Z,57.40
2018-06-06T09:05:40.288Z,57.49
2018-06-06T09:08:09.037Z,55.92
2018-06-06T09:10:37.612Z,56.60
2018-06-06T09:13:06.297Z,54.31
2018-06-06T09:15:34.864Z,54.36
2018-06-06T09:18:03.829Z,54.46
2018-06-06T09:20:32.392Z,53.75
2018-06-06T09:23:01.008Z,54.78
2018-06-06T09:25:29.681Z,53.89
2018-06-06T09:27:58.287Z,52.38
2018-06-06T09:30:26.976Z,52.77
2018-06-06T09:32:55.542Z,52.59
2018-06-06T09:35:24.112Z,52.44
2018-06-06T09:37:53.025Z,52.89
2018-06-06T09:40:21.628Z,53.30
2018-06-06T09:42:50.328Z,50.71
2018-06-06T09:45:18.917Z,51.69
2018-06-06T09:47:47.468Z,52.20
2018-06-06T09:50:16.138Z,51.08
2018-06-06T09:52:44.775Z,51.09
2018-06-06T09:55:13.508Z,50.60
2018-06-06T09:57:42.364Z,49.12
2018-06-06T10:00:11.013Z,48.81
2018-06-06T10:02:39.679Z,47.40
2018-06-06T10:05:08.285Z,46.69
2018-06-06T10:07:36.844Z,47.69
2018-06-06T10:10:05.590Z,47.51
2018-06-06T10:12:34.236Z,47.87
2018-06-06T10:15:02.901Z,47.51
2018-06-06T10:17:31.588Z,49.31
2018-06-06T10:20:00.404Z,48.08
2018-06-06T10:22:29.063Z,46.99
2018-06-06T10:24:57.794Z,47.64
2018-06-06T10:27:26.363Z,45.24
2018-06-06T10:29:55.058Z,45.14
2018-06-06T10:32:23.705Z,44.29
2018-06-06T10:34:52.373Z,45.96
2018-06-06T10:37:21.049Z,44.27
2018-06-06T10:39:49.703Z,44.59
2018-06-06T10:42:18.397Z,44.43
2018-06-06T10:44:47.038Z,42.81
2018-06-06T10:47:16.101Z,43.70
2018-06-06T10:49:44.820Z,43.18
2018-06-06T10:52:13.627Z,43.54
2018-06-06T10:54:42.424Z,44.79
2018-06-06T10:57:11.140Z,42.47
2018-06-06T10:59:39.674Z,42.80
2018-06-06T11:02:08.296Z,42.39
2018-06-06T11:04:37.036Z,42.72
2018-06-06T11:07:05.797Z,41.94
2018-06-06T11:09:34.488Z,39.63
2018-06-06T11:12:03.080Z,40.98
2018-06-06T11:14:31.749Z,39.29
2018-06-06T11:17:00.387Z,40.86
2018-06-06T11:19:28.981Z,41.53
2018-06-06T11:21:57.653Z,41.68
2018-06-06T11:24:26.289Z,42.10
2018-06-06T11:26:54.948Z,39.33
2018-06-06T11:29:23.564Z,41.57
2018-06-06T11:31:52.101Z,39.61
2018-06-06T11:34:21.318Z,36.79
2018-06-06T11:36:49.883Z,37.39
2018-06-06T11:39:18.469Z,37.83
2018-06-06T11:41:47.053Z,37.52
2018-06-06T11:44:15.627Z,35.91
2018-06-06T11:46:44.177Z,36.03
2018-06-06T11:49:12.806Z,37.44
2018-06-06T11:51:41.612Z,37.63
2018-06-06T11:54:10.274Z,36.58
2018-06-06T11:56:38.951Z,38.18
2018-06-06T11:59:07.563Z,37.36
2018-06-06T12:01:36.386Z,36.70
2018-06-06T12:04:04.985Z,35.72
2018-06-06T12:06:33.681Z,34.83
2018-06-06T12:09:02.284Z,35.31
2018-06-06T12:11:30.978Z,37.22
2018-06-06T12:13:59.612Z,36.59
2018-06-06T12:16:28.373Z,37.75
2018-06-06T12:18:57.172Z,35.76
2018-06-06T12:21:25.871Z,34.86
2018-06-06T12:23:54.425Z,34.71
2018-06-06T12:26:23.013Z,33.85
2018-06-06T12:28:51.596Z,33.94
2018-06-06T12:31:20.227Z,33.75
2018-06-06T12:33:49.020Z,33.82
2018-06-06T12:36:17.866Z,34.38
2018-06-06T12:38:46.502Z,33.26
2018-06-06T12:41:15.065Z,34.29
2018-06-06T12:43:43.692Z,31.43
2018-06-06T12:46:12.290Z,31.04
2018-06-06T12:48:41.010Z,31.48
2018-06-06T12:51:09.665Z,30.67
2018-06-06T12:53:39.396Z,31.69
2018-06-06T12:56:07.990Z,31.12
2018-06-06T12:58:36.883Z,31.76
2018-06-06T13:01:05.456Z,30.77
2018-06-06T13:03:34.052Z,30.00
2018-06-06T13:06:02.930Z,28.00
2018-06-06T13:08:31.567Z,28.66
2018-06-06T13:11:00.143Z,30.28
2018-06-06T13:13:28.909Z,30.15
2018-06-06T13:15:57.583Z,29.74
2018-06-06T13:18:26.789Z,30.76
2018-06-06T13:20:55.572Z,29.18
2018-06-06T13:23:24.287Z,29.23
2018-06-06T13:25:52.899Z,28.04
2018-06-06T13:28:21.596Z,28.48
2018-06-06T13:30:50.179Z,29.65
2018-06-06T13:33:18.760Z,27.35
2018-06-06T13:35:47.403Z,28.15
2018-06-06T13:38:16.093Z,28.77
2018-06-06T13:40:44.985Z,28.26
2018-06-06T13:43:13.719Z,27.98
2018-06-06T13:45:42.489Z,29.36
2018-06-06T13:48:11.213Z,27.98
2018-06-06T13:50:39.851Z,29.84
2018-06-06T13:53:08.468Z,27.69
2018-06-06T13:55:37.223Z,29.68
2018-06-06T13:58:05.857Z,29.13
2018-06-06T14:00:34.646Z,30.27
2018-06-06T14:03:03.490Z,29.91
2018-06-06T14:05:32.621Z,28.90
2018-06-06T14:08:01.528Z,29.70
2018-06-06T14:10:30.279Z,29.34
2018-06-06T14:12:58.964Z,28.90
2018-06-06T14:15:28.561Z,29.05
2018-06-06T14:17:57.347Z,29.32
2018-06-06T14:20:26.188Z,29.57
2018-06-06T14:22:54.846Z,28.78
2018-06-06T14:25:23.684Z,27.54
2018-06-06T14:27:52.381Z,27.90
2018-06-06T14:30:20.980Z,27.70
2018-06-06T14:32:49.791Z,27.49
2018-06-06T14:35:18.618Z,28.79
2018-06-06T14:37:47.336Z,27.63
2018-06-06T14:40:16.102Z,27.87
2018-06-06T14:42:44.815Z,27.61
2018-06-06T14:45:13.548Z,27.44
2018-06-06T14:47:42.281Z,27.25
2018-06-06T14:50:10.815Z,27.26
2018-06-06T14:52:39.688Z,27.53
2018-06-06T14:55:08.289Z,27.45
2018-06-06T14:57:37.149Z,26.52
2018-06-06T15:00:06.011Z,27.17
2018-06-06T15:02:34.754Z,26.56
2018-06-06T15:05:03.420Z,27.39
2018-06-06T15:07:32.142Z,25.97
2018-06-06T15:10:00.846Z,26.18
2018-06-06T15:12:30.186Z,25.61
2018-06-06T15:14:58.891Z,27.10
2018-06-06T15:17:27.545Z,27.10
2018-06-06T15:19:56.290Z,25.90
2018-06-06T15:22:24.927Z,27.45
2018-06-06T15:24:53.717Z,27.33
2018-06-06T15:27:22.343Z,26.57
2018-06-06T15:29:51.032Z,26.00
2018-06-06T15:32:19.829Z,26.20
2018-06-06T15:34:48.578Z,24.64
2018-06-06T15:37:17.176Z,25.01
2018-06-06T15:39:45.865Z,25.74
2018-06-06T15:42:14.435Z,25.43
2018-06-06T15:44:43.158Z,24.75
2018-06-06T15:47:11.763Z,25.23
2018-06-06T15:49:41.273Z,25.50
2018-06-06T15:52:09.961Z,26.85
2018-06-06T15:54:38.567Z,25.14
2018-06-06T15:57:07.407Z,26.23
2018-06-06T15:59:35.926Z,23.36
2018-06-06T16:02:04.563Z,24.45
2018-06-06T16:04:33.173Z,24.91
2018-06-06T16:07:01.775Z,23.70
2018-06-06T16:09:31.444Z,22.03
2018-06-06T16:12:00.078Z,24.50
2018-06-06T16:14:28.748Z,24.74
2018-06-06T16:16:57.552Z,24.31
2018-06-06T16:19:26.129Z,23.01
2018-06-06T16:21:54.937Z,24.21
2018-06-06T16:24:23.580Z,24.78
2018-06-06T16:26:52.206Z,25.00
2018-06-06T16:29:20.809Z,23.18
2018-06-06T16:31:49.374Z,23.18
2018-06-06T16:34:18.028Z,22.52
2018-06-06T16:36:46.667Z,23.01
2018-06-06T16:39:15.416Z,24.08
2018-06-06T16:41:44.108Z,24.27
2018-06-06T16:44:13.101Z,24.08
2018-06-06T16:46:41.780Z,24.67
2018-06-06T16:49:10.369Z,24.79
2018-06-06T16:51:38.985Z,24.78
2018-06-06T16:54:07.529Z,26.14
2018-06-06T16:56:36.061Z,24.19
2018-06-06T16:59:04.744Z,24.69
2018-06-06T17:01:33.581Z,25.58
2018-06-06T17:04:02.168Z,25.59
2018-06-06T17:06:30.785Z,24.12
2018-06-06T17:08:59.364Z,25.02
2018-06-06T17:11:27.956Z,25.44
2018-06-06T17:13:56.677Z,26.94
2018-06-06T17:16:25.360Z,28.22
2018-06-06T17:18:54.037Z,29.89
2018-06-06T17:21:22.717Z,28.01
2018-06-06T17:23:51.288Z,27.37
2018-06-06T17:26:19.938Z,28.07
2018-06-06T17:28:48.527Z,28.99
2018-06-06T17:31:17.157Z,29.92
2018-06-06T17:33:45.858Z,29.65
2018-06-06T17:36:14.667Z,31.52
2018-06-06T17:38:43.277Z,32.09
2018-06-06T17:41:12.164Z,32.31
2018-06-06T17:43:40.849Z,33.39
2018-06-06T17:46:09.718Z,34.30
2018-06-06T17:48:38.301Z,34.74
2018-06-06T17:51:07.145Z,33.61
2018-06-06T17:53:36.053Z,32.98
2018-06-06T17:56:04.840Z,32.97
2018-06-06T17:58:33.522Z,34.46
2018-06-06T18:01:02.138Z,32.95
2018-06-06T18:03:31.673Z,34.54
2018-06-06T18:06:00.278Z,33.24
2018-06-06T18:08:29.243Z,33.22
2018-06-06T18:10:57.890Z,33.38
2018-06-06T18:13:26.535Z,35.08
2018-06-06T18:15:55.259Z,36.29
2018-06-06T18:18:23.934Z,35.57
2018-06-06T18:20:52.663Z,36.83
2018-06-06T18:23:21.560Z,35.90
2018-06-06T18:25:50.193Z,35.98
2018-06-06T18:28:18.948Z,36.28
2018-06-06T18:30:47.899Z,36.99
2018-06-06T18:33:16.529Z,36.68
2018-06-06T18:35:45.305Z,38.05
2018-06-06T18:38:13.996Z,37.92
2018-06-06T18:40:42.599Z,38.13
2018-06-06T18:43:11.384Z,38.25
2018-06-06T18:45:40.304Z,38.84
2018-06-06T18:48:09.007Z,40.21
2018-06-06T18:50:37.601Z,40.58
2018-06-06T18:53:06.195Z,41.83
2018-06-06T18:55:34.975Z,42.42
2018-06-06T18:58:03.839Z,40.61
2018-06-06T19:00:33.438Z,43.16
2018-06-06T19:03:01.974Z,43.85
2018-06-06T19:05:30.640Z,43.01
2018-06-06T19:07:59.473Z,42.21
2018-06-06T19:10:28.138Z,42.58
2018-06-06T19:12:56.908Z,42.51
2018-06-06T19:15:25.651Z,42.67
2018-06-06T19:17:54.348Z,43.62
2018-06-06T19:20:23.285Z,44.06
2018-06-06T19:22:51.932Z,44.03
2018-06-06T19:25:20.578Z,44.01
2018-06-06T19:27:49.184Z,46.01
2018-06-06T19:30:18.406Z,46.08
2018-06-06T19:32:47.018Z,46.82
2018-06-06T19:35:15.681Z,46.39
2018-06-06T19:37:44.325Z,46.34
2018-06-06T19:40:13.088Z,46.83
2018-06-06T19:42:41.769Z,47.23
2018-06-06T19:45:10.392Z,47.46
2018-06-06T19:47:38.984Z,47.76
2018-06-06T19:50:07.868Z,47.23
2018-06-06T19:52:36.512Z,47.93
2018-06-06T19:55:05.332Z,47.82
2018-06-06T19:57:33.995Z,48.46
2018-06-06T20:00:03.482Z,47.94
2018-06-06T20:02:32.303Z,48.96
2018-06-06T20:05:00.945Z,48.81
2018-06-06T20:07:29.841Z,49.15
2018-06-06T20:09:58.571Z,48.33
2018-06-06T20:12:27.183Z,48.58
2018-06-06T20:14:55.795Z,47.81
2018-06-06T20:17:24.442Z,49.76
2018-06-06T20:19:53.504Z,49.36
2018-06-06T20:22:22.161Z,49.65
2018-06-06T20:24:50.728Z,49.52
2018-06-06T20:27:19.374Z,48.65
2018-06-06T20:29:47.950Z,49.41
2018-06-06T20:32:16.565Z,49.72
2018-06-06T20:34:45.413Z,49.83
2018-06-06T20:37:14.230Z,48.67
2018-06-06T20:39:43.088Z,50.10
2018-06-06T20:42:11.769Z,49.28
2018-06-06T20:44:40.606Z,50.24
2018-06-06T20:47:09.235Z,49.64
2018-06-06T20:49:38.211Z,49.82
2018-06-06T20:52:06.854Z,50.27
2018-06-06T20:54:35.847Z,50.91
2018-06-06T20:57:04.664Z,50.55
2018-06-06T20:59:33.300Z,50.71
2018-06-06T21:02:02.027Z,50.73
2018-06-06T21:04:30.941Z,50.93
2018-06-06T21:06:59.565Z,51.88
2018-06-06T21:09:28.273Z,52.08
2018-06-06T21:11:56.829Z,51.21
2018-06-06T21:14:25.651Z,51.38
2018-06-06T21:16:54.373Z,50.64
2018-06-06T21:19:23.063Z,51.91
2018-06-06T21:21:51.669Z,50.85
2018-06-06T21:24:20.561Z,50.32
2018-06-06T21:26:49.180Z,50.32
2018-06-06T21:29:17.883Z,51.83
2018-06-06T21:31:48.757Z,52.02
2018-06-06T21:34:17.558Z,52.19
2018-06-06T21:36:46.308Z,52.17
2018-06-06T21:39:14.920Z,51.81
2018-06-06T21:41:43.755Z,51.15
2018-06-06T21:44:12.603Z,50.98
2018-06-06T21:46:41.310Z,52.02
2018-06-06T21:49:10.008Z,51.34
2018-06-06T21:51:38.628Z,51.71
2018-06-06T21:54:07.211Z,51.40
2018-06-06T21:56:35.936Z,51.36
2018-06-06T21:59:04.892Z,51.88
2018-06-06T22:01:33.701Z,52.00
2018-06-06T22:04:02.352Z,52.77
2018-06-06T22:06:31.027Z,52.61
2018-06-06T22:08:59.716Z,51.72
2018-06-06T22:11:28.285Z,51.86
2018-06-06T22:13:56.969Z,52.84
2018-06-06T22:16:25.612Z,51.55
2018-06-06T22:18:54.248Z,51.89
2018-06-06T22:21:22.937Z,52.17
2018-06-06T22:23:51.655Z,52.01
2018-06-06T22:26:21.135Z,51.97
2018-06-06T22:28:49.743Z,53.00
2018-06-06T22:31:18.376Z,53.11
2018-06-06T22:33:47.034Z,53.38
2018-06-06T22:36:15.772Z,51.59
2018-06-06T22:38:44.352Z,52.77
2018-06-06T22:41:13.492Z,53.32
2018-06-06T22:43:42.112Z,52.77
2018-06-06T22:46:10.701Z,53.15
2018-06-06T22:48:39.451Z,52.49
2018-06-06T22:51:08.133Z,52.41
2018-06-06T22:53:36.752Z,52.81
2018-06-06T22:56:05.815Z,53.19
2018-06-06T22:58:34.478Z,53.54
2018-06-06T23:01:03.362Z,53.66
2018-06-06T23:03:32.136Z,53.88
2018-06-06T23:06:00.732Z,54.13
2018-06-06T23:08:29.401Z,54.21
2018-06-06T23:10:57.980Z,53.39
2018-06-06T23:13:26.524Z,53.14
2018-06-06T23:15:55.173Z,54.10
2018-06-06T23:18:23.755Z,52.85
2018-06-06T23:20:52.645Z,54.79
2018-06-06T23:23:21.200Z,55.46
2018-06-06T23:25:49.965Z,56.02
2018-06-06T23:28:18.568Z,55.71
2018-06-06T23:30:47.297Z,55.57
2018-06-06T23:33:16.082Z,56.15
2018-06-06T23:35:44.962Z,56.78
2018-06-06T23:38:13.648Z,56.33
2018-06-06T23:40:42.247Z,56.16
2018-06-06T23:43:10.809Z,56.34
2018-06-06T23:45:39.408Z,57.27
2018-06-06T23:48:08.226Z,57.33
2018-06-06T23:50:36.935Z,58.00
2018-06-06T23:53:05.590Z,58.11
2018-06-06T23:55:34.317Z,58.94
2018-06-06T23:58:03.492Z,59.36
